Time;durP1;ratioP1;P1;durP2;ratioP2;P2;SDS_P1;SDS_P2;PMS_P1;PMS_P2;Temp;Humidity;BMP_temperature;BMP_pressure;BME280_temperature;BME280_humidity;BME280_pressure;Samples;Min_cycle;Max_cycle;Signal;HPM_P1;HPM_P2
2020/12/15 00:04:54;;;;;;;89.97;37.87;;;;;;;-1.07;92.08;99390.24;4279648;83;21280;-83
2020/12/15 00:10:55;;;;;;;92.55;39.30;;;;;;;-1.34;91.93;99393.27;4284832;82;21414;-83
2020/12/15 00:16:58;;;;;;;109.10;42.47;;;;;;;-1.48;92.24;99377.60;4284401;83;21189;-83
2020/12/15 00:23:01;;;;;;;102.73;41.50;;;;;;;-1.42;92.23;99388.53;4285026;83;21174;-83
2020/12/15 00:29:02;;;;;;;102.13;40.73;;;;;;;-1.30;91.94;99388.94;4284123;83;21182;-83
2020/12/15 00:35:05;;;;;;;109.70;43.03;;;;;;;-1.23;92.07;99388.84;4284403;83;22007;-82
2020/12/15 00:41:07;;;;;;;115.93;47.33;;;;;;;-1.25;91.96;99391.00;4283035;83;21964;-83
2020/12/15 00:47:08;;;;;;;109.23;41.83;;;;;;;-1.28;91.89;99399.64;4282203;83;21151;-83
2020/12/15 00:53:09;;;;;;;108.13;41.87;;;;;;;-1.28;91.82;99392.92;4283951;83;21352;-83
2020/12/15 00:59:11;;;;;;;94.93;37.33;;;;;;;-1.24;91.83;99389.13;4281111;83;21214;-83
2020/12/15 01:05:12;;;;;;;98.67;42.37;;;;;;;-1.36;91.75;99384.72;4273111;81;21156;-83
2020/12/15 01:11:16;;;;;;;102.83;40.40;;;;;;;-1.41;91.77;99380.22;4219934;83;21296;-83
2020/12/15 01:17:18;;;;;;;96.60;36.30;;;;;;;-1.42;92.06;99393.38;4245245;83;21116;-83
2020/12/15 01:23:20;;;;;;;96.57;37.93;;;;;;;-1.57;92.49;99397.59;4235643;82;21295;-83
2020/12/15 01:29:24;;;;;;;114.03;43.37;;;;;;;-1.70;92.29;99392.89;4254229;82;21460;-83
2020/12/15 01:35:25;;;;;;;98.93;41.83;;;;;;;-1.79;92.26;99387.91;4250045;82;21321;-84
2020/12/15 01:41:28;;;;;;;85.47;36.50;;;;;;;-1.79;92.27;99379.84;4282708;81;21289;-82
2020/12/15 01:47:31;;;;;;;95.07;40.10;;;;;;;-1.78;92.15;99383.59;4271400;82;21672;-83
2020/12/15 01:53:33;;;;;;;98.57;39.67;;;;;;;-1.85;92.29;99375.63;4270716;83;21144;-83
2020/12/15 01:59:35;;;;;;;103.97;39.70;;;;;;;-1.84;92.14;99363.27;4275780;83;21335;-83
2020/12/15 02:05:41;;;;;;;102.00;39.80;;;;;;;-1.92;92.11;99361.73;4284434;83;21597;-83
2020/12/15 02:11:49;;;;;;;103.37;42.60;;;;;;;-1.99;92.06;99369.34;4278971;83;21644;-83
2020/12/15 02:17:51;;;;;;;94.53;39.47;;;;;;;-2.06;92.02;99358.94;4273609;83;21171;-83
2020/12/15 02:24:09;;;;;;;87.20;34.80;;;;;;;-2.01;91.92;99362.11;4584040;76;23368;-83
2020/12/15 02:30:15;;;;;;;105.67;42.30;;;;;;;-2.23;92.11;99365.81;4495093;78;21157;-83
2020/12/15 02:36:18;;;;;;;84.80;35.67;;;;;;;-2.31;92.08;99373.93;4490103;78;21624;-83
2020/12/15 02:42:33;;;;;;;93.33;39.00;;;;;;;-2.26;92.43;99373.08;4398406;79;22955;-84
2020/12/15 02:48:36;;;;;;;84.97;34.17;;;;;;;-2.19;92.36;99370.85;4324321;80;21193;-83
2020/12/15 02:54:38;;;;;;;87.30;34.90;;;;;;;-2.19;92.06;99374.88;4341090;80;21118;-83
2020/12/15 03:00:40;;;;;;;89.23;36.03;;;;;;;-2.21;92.18;99365.77;4332118;81;21157;-83
2020/12/15 03:06:41;;;;;;;85.53;35.00;;;;;;;-2.27;92.21;99351.38;4337378;81;21164;-83
2020/12/15 03:12:45;;;;;;;101.97;41.03;;;;;;;-2.36;92.26;99348.50;4334084;81;21191;-84
2020/12/15 03:18:48;;;;;;;104.13;42.33;;;;;;;-2.38;92.26;99360.59;4333586;81;21182;-83
2020/12/15 03:24:50;;;;;;;75.67;32.57;;;;;;;-2.47;92.06;99355.56;4327234;81;21486;-83
2020/12/15 03:30:53;;;;;;;81.50;31.80;;;;;;;-2.49;92.14;99349.70;4307410;81;21171;-83
2020/12/15 03:36:55;;;;;;;84.83;32.27;;;;;;;-2.51;92.51;99352.66;4322600;81;21198;-84
2020/12/15 03:42:59;;;;;;;74.87;33.70;;;;;;;-2.45;92.39;99347.52;4339640;81;21167;-83
2020/12/15 03:49:03;;;;;;;82.83;33.90;;;;;;;-2.53;92.36;99348.64;4348204;81;21767;-84
2020/12/15 03:55:07;;;;;;;76.60;32.27;;;;;;;-2.45;92.66;99348.85;4353309;80;21590;-83
2020/12/15 04:01:25;;;;;;;83.20;31.23;;;;;;;-2.39;92.48;99345.57;4337136;81;21477;-84
2020/12/15 04:07:29;;;;;;;76.07;32.17;;;;;;;-2.34;92.39;99336.95;4337667;81;21305;-83
2020/12/15 04:13:30;;;;;;;79.17;32.67;;;;;;;-2.46;92.13;99340.53;4355740;80;21185;-84
2020/12/15 04:20:06;;;;;;;71.00;29.77;;;;;;;-2.54;92.20;99335.00;4327701;80;21155;-84
2020/12/15 04:26:07;;;;;;;77.57;33.00;;;;;;;-2.69;92.37;99339.16;4361899;80;21176;-83
2020/12/15 04:32:11;;;;;;;86.33;35.70;;;;;;;-2.71;92.60;99346.11;4342103;80;21159;-83
2020/12/15 04:38:32;;;;;;;88.70;35.57;;;;;;;-2.74;92.40;99349.91;4581718;76;23383;-84
2020/12/15 04:44:36;;;;;;;81.87;32.33;;;;;;;-2.75;92.52;99353.11;4484159;79;21156;-84
2020/12/15 04:50:42;;;;;;;82.40;31.03;;;;;;;-2.69;92.46;99344.52;4498880;79;21136;-84
2020/12/15 04:56:48;;;;;;;81.80;31.30;;;;;;;-2.75;92.57;99358.47;4506626;77;21153;-84
2020/12/15 05:03:07;;;;;;;94.30;43.00;;;;;;;-2.75;92.71;99356.33;4546446;76;28140;-84
2020/12/15 05:09:10;;;;;;;79.67;35.33;;;;;;;-2.52;92.64;99356.41;4486811;79;21132;-84
2020/12/15 05:15:15;;;;;;;83.57;31.77;;;;;;;-2.58;92.48;99360.74;4494002;78;21156;-83
2020/12/15 05:21:19;;;;;;;88.40;33.30;;;;;;;-2.65;93.04;99349.03;4490680;78;21156;-83
2020/12/15 05:27:30;;;;;;;99.23;38.23;;;;;;;-2.77;92.83;99354.48;4478601;79;21175;-84
2020/12/15 05:33:27;;;;;;;95.30;36.47;;;;;;;-2.83;92.88;99360.94;4497289;79;21157;-84
2020/12/15 05:39:49;;;;;;;94.10;36.60;;;;;;;-2.84;92.71;99345.42;4483666;79;21120;-83
2020/12/15 05:45:53;;;;;;;88.73;35.10;;;;;;;-2.84;92.68;99352.12;4458923;79;21625;-83
2020/12/15 05:51:57;;;;;;;87.77;33.43;;;;;;;-2.78;92.82;99356.36;4469134;79;21634;-83
2020/12/15 05:58:01;;;;;;;76.20;32.50;;;;;;;-2.79;92.65;99360.13;4492508;78;21176;-84
2020/12/15 06:04:03;;;;;;;82.57;32.07;;;;;;;-2.72;92.70;99369.16;4432505;79;21125;-84
2020/12/15 06:10:05;;;;;;;81.33;33.53;;;;;;;-2.79;92.47;99378.07;4450307;79;21145;-83
2020/12/15 06:16:07;;;;;;;90.53;34.77;;;;;;;-2.84;92.74;99383.45;4448980;80;21137;-84
2020/12/15 06:22:10;;;;;;;84.93;34.97;;;;;;;-2.79;92.71;99387.45;4419478;80;21306;-83
2020/12/15 06:28:12;;;;;;;82.90;32.43;;;;;;;-2.73;92.78;99383.65;4442664;80;21138;-84
2020/12/15 06:34:19;;;;;;;84.13;35.03;;;;;;;-2.74;92.44;99377.48;4450478;79;21582;-84
2020/12/15 06:40:21;;;;;;;82.80;35.33;;;;;;;-2.93;92.36;99381.92;4437759;79;21161;-84
2020/12/15 06:46:27;;;;;;;89.83;33.20;;;;;;;-2.96;92.41;99399.86;4465884;78;21130;-84
2020/12/15 06:52:29;;;;;;;89.20;34.37;;;;;;;-3.14;92.49;99403.19;4449704;79;21610;-84
2020/12/15 06:58:30;;;;;;;92.80;34.77;;;;;;;-3.19;92.83;99397.08;4450545;79;21176;-83
2020/12/15 07:04:33;;;;;;;75.07;30.40;;;;;;;-3.22;92.59;99381.00;4459654;78;21098;-83
2020/12/15 07:10:40;;;;;;;57.47;26.83;;;;;;;-3.10;92.99;99380.69;4454984;80;21821;-84
2020/12/15 07:16:42;;;;;;;79.27;31.70;;;;;;;-3.03;92.61;99371.27;4448377;78;21716;-84
2020/12/15 07:22:43;;;;;;;80.53;32.63;;;;;;;-2.97;92.64;99378.71;4451663;80;21912;-85
2020/12/15 07:28:48;;;;;;;74.47;30.07;;;;;;;-2.98;92.46;99375.25;4458498;79;21317;-83
2020/12/15 07:34:51;;;;;;;71.67;30.53;;;;;;;-2.98;92.44;99366.41;4453569;78;21594;-83
2020/12/15 07:40:52;;;;;;;71.37;29.97;;;;;;;-2.97;92.33;99374.69;4460270;79;21174;-84
2020/12/15 07:46:56;;;;;;;75.13;30.03;;;;;;;-3.12;92.36;99358.73;4458348;79;21114;-83
2020/12/15 07:53:11;;;;;;;71.87;29.50;;;;;;;-2.97;92.60;99374.16;4442189;79;21161;-84
2020/12/15 07:59:15;;;;;;;65.50;27.40;;;;;;;-2.94;92.53;99372.27;4440585;78;21319;-84
2020/12/15 08:05:24;;;;;;;69.27;29.40;;;;;;;-2.84;92.46;99380.78;4450634;80;21142;-84
2020/12/15 08:11:27;;;;;;;76.03;30.00;;;;;;;-2.76;92.75;99379.66;4441326;80;21543;-84
2020/12/15 08:17:31;;;;;;;79.33;30.40;;;;;;;-2.73;92.58;99380.97;4435624;79;21182;-84
2020/12/15 08:23:37;;;;;;;83.67;31.53;;;;;;;-2.70;92.49;99375.86;4439570;79;21161;-84
2020/12/15 08:29:38;;;;;;;76.60;31.33;;;;;;;-2.60;92.93;99383.81;4428572;80;21103;-84
2020/12/15 08:35:39;;;;;;;77.43;30.97;;;;;;;-2.48;92.77;99381.59;4437407;78;21105;-83
2020/12/15 08:41:52;;;;;;;80.37;32.50;;;;;;;-2.35;92.90;99384.16;4432812;80;21137;-84
2020/12/15 08:47:56;;;;;;;78.20;29.87;;;;;;;-2.32;92.71;99386.28;4439196;80;21153;-84
2020/12/15 09:00:46;;;;;;;83.60;33.47;;;;;;;-2.09;92.98;99384.18;4582895;76;23428;-84
2020/12/15 09:06:51;;;;;;;78.60;32.50;;;;;;;-2.03;93.18;99389.22;4489116;78;21148;-85
2020/12/15 09:12:52;;;;;;;77.53;31.10;;;;;;;-1.90;93.36;99389.09;4486646;79;21148;-85
2020/12/15 09:18:54;;;;;;;76.93;28.70;;;;;;;-1.82;92.87;99393.84;4493032;78;21578;-84
2020/12/15 09:24:57;;;;;;;80.83;33.23;;;;;;;-1.84;92.97;99388.76;4485670;78;21143;-84
2020/12/15 09:31:07;;;;;;;78.33;30.13;;;;;;;-1.69;93.53;99383.22;4494490;79;21239;-85
2020/12/15 09:37:08;;;;;;;67.47;30.00;;;;;;;-1.49;93.12;99379.51;4490749;78;21164;-84
2020/12/15 09:43:10;;;;;;;79.00;33.50;;;;;;;-1.44;93.05;99379.42;4495984;78;21121;-84
2020/12/15 09:49:30;;;;;;;75.63;30.63;;;;;;;-1.42;92.95;99361.67;4474480;78;21498;-84
2020/12/15 09:55:31;;;;;;;73.17;33.07;;;;;;;-1.44;93.16;99358.50;4484438;78;21164;-85
2020/12/15 10:01:33;;;;;;;80.70;33.00;;;;;;;-1.40;93.06;99364.35;4502492;79;21696;-83
2020/12/15 10:07:34;;;;;;;74.67;32.77;;;;;;;-1.31;93.25;99363.15;4512265;78;21171;-84
2020/12/15 10:13:36;;;;;;;80.47;34.97;;;;;;;-1.27;93.20;99360.16;4491793;79;21132;-84
2020/12/15 10:19:37;;;;;;;83.90;34.83;;;;;;;-1.24;93.06;99364.42;4499360;78;21925;-85
2020/12/15 10:40:46;;;;;;;95.83;36.67;;;;;;;-1.05;93.54;99338.90;4595439;76;22232;-84
2020/12/15 10:46:50;;;;;;;;;;;;;;;-1.05;93.30;99332.96;4481875;78;21141;-84
2020/12/15 10:53:22;;;;;;;92.50;38.48;;;;;;;-0.90;93.38;99344.04;4510321;78;20173;-84
2020/12/15 10:59:23;;;;;;;87.13;37.30;;;;;;;-0.87;93.06;99350.98;4504849;78;21171;-84
2020/12/15 11:05:25;;;;;;;88.83;39.13;;;;;;;-0.75;93.28;99335.77;4493755;78;21617;-84
2020/12/15 11:11:26;;;;;;;91.17;39.03;;;;;;;-0.61;93.20;99332.58;4498185;79;21670;-85
2020/12/15 11:17:28;;;;;;;97.17;42.45;;;;;;;-0.52;93.23;99320.83;4495609;79;21151;-85
2020/12/15 11:23:29;;;;;;;92.77;39.50;;;;;;;-0.51;93.13;99321.10;4505443;78;21145;-84
2020/12/15 11:29:31;;;;;;;102.47;42.03;;;;;;;-0.39;93.39;99320.61;4487306;78;21276;-84
2020/12/15 11:35:34;;;;;;;93.45;41.00;;;;;;;-0.24;93.28;99317.14;4489289;78;21169;-84
2020/12/15 11:41:35;;;;;;;90.75;37.73;;;;;;;-0.07;93.52;99320.58;4497512;78;21136;-84
2020/12/15 11:47:36;;;;;;;100.05;40.90;;;;;;;0.13;93.43;99310.77;4485972;78;21136;-84
2020/12/15 11:53:38;;;;;;;86.20;39.20;;;;;;;0.18;93.01;99313.38;4491906;79;21617;-84
2020/12/15 11:59:40;;;;;;;95.67;39.48;;;;;;;0.19;92.95;99309.57;4499411;79;21184;-83
2020/12/15 12:05:41;;;;;;;121.75;46.63;;;;;;;0.15;93.07;99309.13;4499866;78;21446;-84
2020/12/15 12:11:42;;;;;;;92.80;39.10;;;;;;;0.20;93.12;99300.42;4491487;79;21101;-84
2020/12/15 12:17:44;;;;;;;97.22;40.17;;;;;;;0.05;92.82;99260.89;4490030;79;21217;-84
2020/12/15 12:23:45;;;;;;;100.10;40.55;;;;;;;0.05;92.82;99260.89;4480883;79;21136;-83
2020/12/15 12:29:47;;;;;;;102.35;42.23;;;;;;;0.10;93.09;99278.27;4474709;78;21712;-84
2020/12/15 12:36:16;;;;;;;96.97;41.10;;;;;;;0.13;93.23;99276.31;4496120;79;21418;-83
2020/12/15 12:42:17;;;;;;;107.72;41.90;;;;;;;0.14;93.10;99286.00;4441985;79;21949;-84
2020/12/15 12:48:20;;;;;;;96.78;38.90;;;;;;;0.19;93.36;99283.22;4451557;80;21158;-83
2020/12/15 12:54:21;;;;;;;108.57;46.63;;;;;;;0.16;93.05;99248.25;4430989;80;21154;-83
2020/12/15 13:00:35;;;;;;;105.22;42.85;;;;;;;0.16;93.05;99242.88;4394370;80;21139;-83
2020/12/15 13:06:36;;;;;;;106.47;43.28;;;;;;;0.16;93.05;99242.88;4457479;79;21898;-83
2020/12/15 13:12:39;;;;;;;112.88;45.58;;;;;;;0.25;93.25;99238.94;4472847;78;21149;-84
2020/12/15 13:18:40;;;;;;;107.83;44.58;;;;;;;0.25;93.25;99238.94;4445293;78;21180;-84
2020/12/15 13:24:42;;;;;;;108.75;46.05;;;;;;;0.19;93.21;99250.91;4454223;79;21154;-83
2020/12/15 13:30:43;;;;;;;109.50;44.58;;;;;;;0.16;93.16;99256.91;4428242;78;21816;-84
2020/12/15 13:36:45;;;;;;;109.52;44.23;;;;;;;0.10;93.31;99257.53;4457491;79;21148;-84
2020/12/15 13:42:46;;;;;;;106.20;42.30;;;;;;;0.13;93.38;99264.20;4431845;80;21149;-84
2020/12/15 13:48:47;;;;;;;104.95;42.05;;;;;;;0.14;93.32;99261.23;4423688;80;21133;-83
2020/12/15 13:54:49;;;;;;;113.88;50.55;;;;;;;0.14;93.13;99246.44;4430231;80;21567;-84
2020/12/15 14:00:52;;;;;;;104.50;45.30;;;;;;;0.22;93.61;99253.00;4425212;80;21164;-84
2020/12/15 14:06:53;;;;;;;115.75;46.83;;;;;;;0.16;93.55;99260.37;4436361;79;21613;-85
2020/12/15 14:12:54;;;;;;;139.32;61.25;;;;;;;0.25;93.41;99268.55;4430505;79;21161;-85
2020/12/15 14:18:56;;;;;;;125.55;56.90;;;;;;;0.30;93.64;99269.80;4431873;80;21594;-85
2020/12/15 14:24:57;;;;;;;131.60;54.93;;;;;;;-0.03;93.25;99248.38;4432451;80;21140;-85
2020/12/15 14:30:59;;;;;;;134.18;55.00;;;;;;;0.18;93.74;99264.11;4430617;80;21169;-86
2020/12/15 14:37:00;;;;;;;115.67;50.00;;;;;;;0.17;93.48;99284.86;4429911;79;21201;-86
2020/12/15 14:43:02;;;;;;;117.57;49.38;;;;;;;0.17;93.48;99284.86;4429960;80;21125;-86
2020/12/15 14:49:06;;;;;;;146.82;53.25;;;;;;;0.15;93.59;99283.02;4429878;80;21137;-86
2020/12/15 14:55:07;;;;;;;124.87;50.45;;;;;;;0.03;93.62;99273.84;4433036;80;21200;-87
2020/12/15 15:01:09;;;;;;;121.95;51.88;;;;;;;0.11;93.62;99269.89;4433444;80;21136;-86
2020/12/15 15:07:11;;;;;;;129.57;50.30;;;;;;;0.17;93.74;99262.52;4430431;80;21682;-86
2020/12/15 15:13:12;;;;;;;139.03;49.73;;;;;;;0.26;93.81;99264.21;4430093;80;21156;-85
2020/12/15 15:19:13;;;;;;;154.32;60.98;;;;;;;0.20;93.54;99272.69;4429797;80;21149;-86
2020/12/15 15:25:15;;;;;;;144.20;52.58;;;;;;;0.20;93.58;99265.95;4432338;80;21132;-86
2020/12/15 15:31:17;;;;;;;147.78;55.05;;;;;;;0.27;93.54;99268.48;4432421;80;21136;-86
2020/12/15 15:37:19;;;;;;;139.85;51.20;;;;;;;0.25;93.42;99271.25;4431823;80;21172;-86
2020/12/15 15:43:22;;;;;;;143.03;55.47;;;;;;;0.12;93.17;99272.04;4423901;80;21153;-85
2020/12/15 15:49:24;;;;;;;139.15;55.15;;;;;;;0.08;93.46;99266.45;4480561;79;21149;-85
2020/12/15 15:55:26;;;;;;;137.77;55.45;;;;;;;0.08;93.49;99267.80;4460528;79;21165;-86
2020/12/15 16:01:30;;;;;;;140.25;54.00;;;;;;;0.05;93.35;99275.70;4425903;80;21602;-86
2020/12/15 16:07:32;;;;;;;136.05;51.95;;;;;;;0.06;93.28;99285.36;4425462;80;21174;-85
2020/12/15 16:13:33;;;;;;;138.05;54.30;;;;;;;0.03;93.24;99272.50;4424341;80;21125;-86
2020/12/15 16:19:34;;;;;;;138.32;56.48;;;;;;;-0.08;93.78;99282.10;4419087;80;21266;-86
2020/12/15 16:25:36;;;;;;;154.43;57.17;;;;;;;-0.08;93.78;99282.10;4422730;80;21617;-85
2020/12/15 16:31:53;;;;;;;146.35;59.63;;;;;;;0.03;93.60;99269.80;4424292;80;21602;-85
2020/12/15 16:37:55;;;;;;;153.43;61.80;;;;;;;0.06;93.30;99275.94;4421533;80;21156;-85
2020/12/15 16:43:56;;;;;;;131.57;54.80;;;;;;;-0.01;93.46;99273.09;4434622;80;21421;-86
2020/12/15 16:49:58;;;;;;;139.50;58.63;;;;;;;-0.03;93.18;99283.36;4472052;80;21155;-86
2020/12/15 16:55:59;;;;;;;138.70;57.00;;;;;;;-0.32;93.10;99276.66;4436322;80;21606;-85
2020/12/15 17:02:01;;;;;;;142.25;60.10;;;;;;;-0.31;93.16;99275.02;4435674;80;21562;-86
2020/12/15 17:08:03;;;;;;;138.97;58.75;;;;;;;-0.32;93.22;99274.77;4435549;80;21140;-87
2020/12/15 17:14:05;;;;;;;140.97;56.48;;;;;;;-0.33;93.39;99281.23;4436322;80;21165;-85
2020/12/15 17:20:06;;;;;;;143.60;58.90;;;;;;;-0.31;93.27;99273.67;4472879;79;21162;-86
2020/12/15 17:26:09;;;;;;;135.13;55.20;;;;;;;-0.40;93.29;99271.95;4456888;80;21157;-86
2020/12/15 17:32:11;;;;;;;136.68;59.23;;;;;;;-0.32;93.44;99257.83;4447849;80;21144;-85
2020/12/15 17:38:12;;;;;;;144.97;58.63;;;;;;;-0.44;93.10;99276.34;4440819;80;21643;-86
2020/12/15 17:44:14;;;;;;;131.90;59.10;;;;;;;-0.53;93.08;99283.48;4402681;81;21177;-86
2020/12/15 17:51:04;;;;;;;;;;;;;;;;;;;;;
2020/12/15 17:57:15;;;;;;;149.53;61.00;;;;;;;-0.67;92.96;99280.77;4263513;81;21284;-86
2020/12/15 18:03:18;;;;;;;135.03;60.83;;;;;;;-0.71;93.15;99282.45;4415606;79;21158;-85
2020/12/15 18:09:20;;;;;;;139.67;59.07;;;;;;;-0.65;93.21;99288.53;4417744;80;21154;-86
2020/12/15 18:15:21;;;;;;;137.33;59.07;;;;;;;-0.62;93.04;99298.70;4420286;80;21161;-88
2020/12/15 18:21:32;;;;;;;141.70;60.53;;;;;;;-0.70;92.91;99286.73;4463450;78;21134;-87
2020/12/15 18:27:34;;;;;;;152.47;63.73;;;;;;;-0.71;92.94;99287.84;4426035;79;21150;-87
2020/12/15 18:33:35;;;;;;;141.43;65.00;;;;;;;-0.84;92.70;99269.77;4446159;79;21157;-87
2020/12/15 18:39:37;;;;;;;150.73;67.27;;;;;;;-0.82;93.19;99278.88;4429497;79;21145;-86
2020/12/15 18:45:38;;;;;;;156.27;67.70;;;;;;;-0.82;93.18;99287.75;4454344;79;21570;-87
2020/12/15 18:51:40;;;;;;;160.03;68.63;;;;;;;-0.80;93.29;99293.61;4435736;79;21118;-86
2020/12/15 18:57:41;;;;;;;173.13;75.10;;;;;;;-0.75;93.08;99286.03;4448135;79;21574;-86
2020/12/15 19:03:43;;;;;;;176.63;70.33;;;;;;;-0.75;93.04;99291.41;4434674;80;21165;-86
2020/12/15 19:09:45;;;;;;;219.47;82.22;;;;;;;-0.76;92.92;99292.48;4430084;80;21109;-86
2020/12/15 19:15:47;;;;;;;220.67;82.87;;;;;;;-0.81;92.92;99293.36;4427709;80;21706;-87
2020/12/15 19:21:48;;;;;;;219.97;83.63;;;;;;;-0.94;92.98;99301.39;4441894;80;21150;-87
2020/12/15 19:27:51;;;;;;;184.87;75.83;;;;;;;-0.87;93.11;99303.95;4494063;79;21141;-85
2020/12/15 19:33:53;;;;;;;221.37;91.77;;;;;;;-0.88;92.92;99321.71;4468343;78;21155;-86
2020/12/15 19:39:54;;;;;;;221.07;92.97;;;;;;;-0.98;92.87;99321.85;4445450;79;21159;-87
2020/12/15 19:45:56;;;;;;;211.53;90.77;;;;;;;-0.96;93.06;99325.05;4487742;79;21674;-85
2020/12/15 19:51:58;;;;;;;227.37;94.70;;;;;;;-1.02;92.89;99330.25;4351794;79;21161;-87
2020/12/15 19:57:59;;;;;;;228.83;96.20;;;;;;;-0.99;92.78;99322.42;4425046;80;21157;-86
2020/12/15 20:04:01;;;;;;;234.00;99.00;;;;;;;-1.03;92.65;99326.77;4446060;79;21659;-85
2020/12/15 20:10:05;;;;;;;259.57;95.73;;;;;;;-1.04;92.84;99324.37;4390837;81;21146;-88
2020/12/15 20:16:19;;;;;;;254.97;94.70;;;;;;;-1.07;92.69;99329.79;4365793;81;21999;-86
2020/12/15 20:22:26;;;;;;;226.87;88.67;;;;;;;-1.17;92.78;99332.61;4413434;80;21113;-87
2020/12/15 20:28:28;;;;;;;258.90;104.57;;;;;;;-1.20;92.75;99339.91;4426001;80;21136;-88
2020/12/15 20:34:29;;;;;;;233.73;95.20;;;;;;;-1.26;92.65;99349.12;4404693;80;21154;-86
2020/12/15 20:40:31;;;;;;;220.70;97.00;;;;;;;-1.22;92.81;99354.16;4427607;80;21156;-88
2020/12/15 20:46:34;;;;;;;230.53;96.43;;;;;;;-1.26;92.65;99353.16;4432419;80;21157;-86
2020/12/15 20:52:36;;;;;;;236.23;98.63;;;;;;;-1.25;92.36;99353.40;4433386;80;21141;-85
2020/12/15 20:58:38;;;;;;;238.43;101.63;;;;;;;-1.31;92.46;99363.15;4433128;80;21184;-87
2020/12/15 21:04:39;;;;;;;238.23;102.30;;;;;;;-1.32;92.44;99370.96;4431806;80;21114;-87
2020/12/15 21:10:41;;;;;;;250.50;102.57;;;;;;;-1.35;92.39;99371.54;4431980;80;21590;-85
2020/12/15 21:16:43;;;;;;;257.47;103.50;;;;;;;-1.46;92.07;99380.27;4450442;79;21153;-87
2020/12/15 21:22:44;;;;;;;264.83;107.57;;;;;;;-1.51;92.44;99382.20;4472358;80;21126;-88
2020/12/15 21:28:46;;;;;;;244.60;107.90;;;;;;;-1.48;92.43;99387.00;4472297;79;21142;-86
2020/12/15 21:34:56;;;;;;;257.07;105.90;;;;;;;-1.51;92.46;99380.86;4451374;80;21587;-85
2020/12/15 21:40:57;;;;;;;243.90;101.60;;;;;;;-1.56;92.15;99375.02;4427491;79;21153;-87
2020/12/15 21:47:00;;;;;;;253.10;108.53;;;;;;;-1.58;92.34;99387.14;4444634;80;21568;-86
2020/12/15 21:53:01;;;;;;;268.57;109.40;;;;;;;-1.60;92.32;99394.14;4426348;80;21149;-87
2020/12/15 21:59:03;;;;;;;286.47;118.97;;;;;;;-1.57;92.39;99390.06;4415548;80;21173;-86
2020/12/15 22:12:09;;;;;;;288.77;121.30;;;;;;;-1.61;92.26;99403.25;4465687;80;21114;-87
2020/12/15 22:18:11;;;;;;;270.80;115.80;;;;;;;-1.64;92.16;99417.25;4465541;80;21639;-85
2020/12/15 22:24:13;;;;;;;279.77;115.50;;;;;;;-1.71;91.90;99420.83;4466481;80;21134;-87
2020/12/15 22:30:15;;;;;;;270.73;112.70;;;;;;;-1.70;92.08;99428.59;4465558;80;21138;-85
2020/12/15 22:36:16;;;;;;;270.20;114.87;;;;;;;-1.77;92.15;99416.61;4403235;81;21165;-86
2020/12/15 22:42:24;;;;;;;273.80;116.47;;;;;;;-1.78;92.29;99422.51;4406428;80;21165;-87
2020/12/15 22:48:26;;;;;;;271.20;113.73;;;;;;;-1.70;92.29;99425.91;4409374;80;21284;-87
2020/12/15 22:54:28;;;;;;;276.23;120.60;;;;;;;-1.72;92.17;99428.08;4408912;80;21133;-86
2020/12/15 23:00:30;;;;;;;288.50;118.33;;;;;;;-1.73;92.16;99423.80;4409314;80;21162;-88
2020/12/15 23:06:31;;;;;;;277.87;119.07;;;;;;;-1.71;92.06;99424.30;4409170;81;21149;-86
2020/12/15 23:12:33;;;;;;;283.07;120.20;;;;;;;-1.69;91.94;99425.34;4408974;81;21681;-87
2020/12/15 23:18:34;;;;;;;297.03;128.27;;;;;;;-1.80;91.71;99423.32;4383650;81;21206;-86
2020/12/15 23:24:37;;;;;;;292.80;123.20;;;;;;;-1.85;91.82;99424.70;4250513;83;21312;-86
2020/12/15 23:30:39;;;;;;;283.73;119.10;;;;;;;-1.92;91.58;99430.97;4341588;82;21130;-86
2020/12/15 23:36:41;;;;;;;296.57;124.90;;;;;;;-1.97;91.90;99423.48;4263591;83;21187;-88
2020/12/15 23:42:44;;;;;;;317.47;126.43;;;;;;;-2.00;91.82;99422.19;4249211;83;21175;-86
